Nocc Pamplona — LALG5 — position and weather

sailwx.info

Track history (hours):
 
Tides and Currents Weather Stations Pressure Air Temp Water Temp Dewpoint Dewpoint Depression Visibility Wind Speed Wind Dir Waves Ship Positions

Nocc Pamplona

Last reported at 2015-Jun-09 18:20 UTC. Time now 2015-Jul-04 13:39 UTC.
Position N 35°02' E 129°03'.
Warning: this ship's position is 24 days out of date.

Length 177 m; draft 6.8 m.

Type: Cargo ship. MMSI: 257349000.

Date/timePositionNaut miles runAvg speedWind from/ knotsBaromVisibWave heightAir tempDewpointWater temp
2015-Jun-09 18:20N 35°02' E 129°03'0 0.0
2015-Jun-09 16:26N 35°02' E 129°03'0 0.0
2015-Jun-09 13:20N 35°02' E 129°03'0 0.0
2015-Jun-09 02:23N 35°02' E 129°03'  
2015-Jun-04 13:33N 34°53' E 130°11'9 0.5
2015-Jun-03 19:06N 34°50' E 130°21'1 0.8
2015-Jun-03 18:11N 34°50' E 130°20'0 0.4
2015-Jun-03 17:06N 34°51' E 130°20'  
2015-Jun-01 10:10N 34°52' E 130°12'0 0.6
2015-Jun-01 09:32N 34°52' E 130°12'1 0.5
2015-Jun-01 08:33N 34°53' E 130°13'1 0.5
2015-Jun-01 07:29N 34°53' E 130°13'0 0.4
2015-Jun-01 06:33N 34°54' E 130°13'0 0.3
2015-Jun-01 05:20N 34°54' E 130°13'2 0.4
2015-May-31 23:14N 34°52' E 130°11'  
Track history (hours):
 
Tides and Currents Weather Stations Pressure Air Temp Water Temp Dewpoint Dewpoint Depression Visibility Wind Speed Wind Dir Waves Ship Positions

Nocc Pamplona

Last reported at 2015-Jun-09 18:20 UTC. Time now 2015-Jul-04 13:39 UTC.
Position N 35°02' E 129°03'.
Warning: this ship's position is 24 days out of date.

Length 177 m; draft 6.8 m.

Type: Cargo ship. MMSI: 257349000.

Date/timePositionNaut miles runAvg speedWind from/ knotsBaromVisibWave heightAir tempDewpointWater temp
2015-Jun-09 18:20N 35°02' E 129°03'0 0.0
2015-Jun-09 16:26N 35°02' E 129°03'0 0.0
2015-Jun-09 13:20N 35°02' E 129°03'0 0.0
2015-Jun-09 02:23N 35°02' E 129°03'  
2015-Jun-04 13:33N 34°53' E 130°11'9 0.5
2015-Jun-03 19:06N 34°50' E 130°21'1 0.8
2015-Jun-03 18:11N 34°50' E 130°20'0 0.4
2015-Jun-03 17:06N 34°51' E 130°20'  
2015-Jun-01 10:10N 34°52' E 130°12'0 0.6
2015-Jun-01 09:32N 34°52' E 130°12'1 0.5
2015-Jun-01 08:33N 34°53' E 130°13'1 0.5
2015-Jun-01 07:29N 34°53' E 130°13'0 0.4
2015-Jun-01 06:33N 34°54' E 130°13'0 0.3
2015-Jun-01 05:20N 34°54' E 130°13'2 0.4
2015-May-31 23:14N 34°52' E 130°11'  

Dump ship's entire track history